sensor_id;sensor_type;location;lat;lon;timestamp;pressure;altitude;pressure_sealevel;temperature;humidity
42247;BME280;27913;42.722;23.268;2023-04-25T00:04:12;94117.88;;;10.36;100.00
42247;BME280;27913;42.722;23.268;2023-04-25T00:06:38;94152.00;;;10.57;100.00
42247;BME280;27913;42.722;23.268;2023-04-25T00:09:04;94031.13;;;9.77;100.00
42247;BME280;27913;42.722;23.268;2023-04-25T00:11:33;94206.47;;;10.95;100.00
42247;BME280;27913;42.722;23.268;2023-04-25T00:13:58;94212.09;;;11.06;100.00
42247;BME280;27913;42.722;23.268;2023-04-25T00:16:25;94168.47;;;10.84;100.00
42247;BME280;27913;42.722;23.268;2023-04-25T00:18:50;94207.38;;;11.15;100.00
42247;BME280;27913;42.722;23.268;2023-04-25T00:21:19;94219.34;;;11.17;100.00
42247;BME280;27913;42.722;23.268;2023-04-25T00:23:45;94215.06;;;11.16;100.00
42247;BME280;27913;42.722;23.268;2023-04-25T00:26:11;94135.97;;;10.65;100.00
42247;BME280;27913;42.722;23.268;2023-04-25T00:28:37;94234.28;;;11.23;100.00
42247;BME280;27913;42.722;23.268;2023-04-25T00:31:03;94238.56;;;11.11;100.00
42247;BME280;27913;42.722;23.268;2023-04-25T00:33:28;94160.25;;;10.67;100.00
42247;BME280;27913;42.722;23.268;2023-04-25T00:35:54;94238.19;;;11.07;100.00
42247;BME280;27913;42.722;23.268;2023-04-25T00:38:20;94233.31;;;11.11;100.00
42247;BME280;27913;42.722;23.268;2023-04-25T00:40:45;94227.03;;;11.19;100.00
42247;BME280;27913;42.722;23.268;2023-04-25T00:43:11;94188.91;;;10.82;100.00
42247;BME280;27913;42.722;23.268;2023-04-25T00:45:38;94225.59;;;11.16;100.00
42247;BME280;27913;42.722;23.268;2023-04-25T00:48:04;94172.94;;;10.84;100.00
42247;BME280;27913;42.722;23.268;2023-04-25T00:50:30;94222.34;;;11.21;100.00
42247;BME280;27913;42.722;23.268;2023-04-25T00:52:57;94179.34;;;10.95;100.00
42247;BME280;27913;42.722;23.268;2023-04-25T00:55:23;94128.06;;;10.72;99.16
42247;BME280;27913;42.722;23.268;2023-04-25T00:57:50;94218.97;;;11.07;99.81
42247;BME280;27913;42.722;23.268;2023-04-25T01:00:16;94209.22;;;11.14;100.00
42247;BME280;27913;42.722;23.268;2023-04-25T01:02:43;94189.22;;;11.06;100.00
42247;BME280;27913;42.722;23.268;2023-04-25T01:05:10;94196.66;;;11.16;100.00
42247;BME280;27913;42.722;23.268;2023-04-25T01:07:35;94160.59;;;10.78;100.00
42247;BME280;27913;42.722;23.268;2023-04-25T01:10:01;94193.50;;;11.01;100.00
42247;BME280;27913;42.722;23.268;2023-04-25T01:12:27;94023.19;;;9.97;100.00
42247;BME280;27913;42.722;23.268;2023-04-25T01:14:53;93999.41;;;9.85;100.00
42247;BME280;27913;42.722;23.268;2023-04-25T01:17:18;94197.13;;;11.06;100.00
42247;BME280;27913;42.722;23.268;2023-04-25T01:19:44;94194.72;;;10.98;100.00
42247;BME280;27913;42.722;23.268;2023-04-25T01:22:11;94184.22;;;10.98;100.00
42247;BME280;27913;42.722;23.268;2023-04-25T01:24:37;94186.25;;;10.96;100.00
42247;BME280;27913;42.722;23.268;2023-04-25T01:27:03;94063.00;;;9.94;100.00
42247;BME280;27913;42.722;23.268;2023-04-25T01:29:29;94138.50;;;10.19;100.00
42247;BME280;27913;42.722;23.268;2023-04-25T01:31:55;94150.25;;;10.10;100.00
42247;BME280;27913;42.722;23.268;2023-04-25T01:34:21;94188.00;;;10.36;100.00
42247;BME280;27913;42.722;23.268;2023-04-25T01:36:49;94047.13;;;9.55;100.00
42247;BME280;27913;42.722;23.268;2023-04-25T01:39:15;94146.78;;;10.23;100.00
42247;BME280;27913;42.722;23.268;2023-04-25T01:41:41;94116.69;;;10.25;100.00
42247;BME280;27913;42.722;23.268;2023-04-25T01:44:07;94101.72;;;10.19;100.00
42247;BME280;27913;42.722;23.268;2023-04-25T01:46:34;94173.19;;;10.69;100.00
42247;BME280;27913;42.722;23.268;2023-04-25T01:48:59;94112.41;;;10.24;100.00
42247;BME280;27913;42.722;23.268;2023-04-25T01:51:25;94173.56;;;10.72;100.00
42247;BME280;27913;42.722;23.268;2023-04-25T01:53:51;94175.69;;;10.50;100.00
42247;BME280;27913;42.722;23.268;2023-04-25T01:56:18;94182.31;;;10.53;100.00
42247;BME280;27913;42.722;23.268;2023-04-25T01:58:44;94179.09;;;10.57;100.00
42247;BME280;27913;42.722;23.268;2023-04-25T02:01:10;94181.69;;;10.64;100.00
42247;BME280;27913;42.722;23.268;2023-04-25T02:03:35;94186.97;;;10.64;100.00
42247;BME280;27913;42.722;23.268;2023-04-25T02:06:01;94189.34;;;10.72;100.00
42247;BME280;27913;42.722;23.268;2023-04-25T02:08:26;94185.91;;;10.72;100.00
42247;BME280;27913;42.722;23.268;2023-04-25T02:10:52;94135.69;;;10.27;100.00
42247;BME280;27913;42.722;23.268;2023-04-25T02:13:17;94186.97;;;10.64;100.00
42247;BME280;27913;42.722;23.268;2023-04-25T02:15:43;94038.00;;;9.78;100.00
42247;BME280;27913;42.722;23.268;2023-04-25T02:18:08;94004.72;;;9.51;100.00
42247;BME280;27913;42.722;23.268;2023-04-25T02:20:35;94010.13;;;9.70;100.00
42247;BME280;27913;42.722;23.268;2023-04-25T02:23:02;94134.44;;;10.50;100.00
42247;BME280;27913;42.722;23.268;2023-04-25T02:25:27;94156.97;;;10.72;100.00
42247;BME280;27913;42.722;23.268;2023-04-25T02:27:53;94158.00;;;10.71;100.00
42247;BME280;27913;42.722;23.268;2023-04-25T02:30:19;94112.38;;;10.45;100.00
42247;BME280;27913;42.722;23.268;2023-04-25T02:32:44;94141.19;;;10.72;100.00
42247;BME280;27913;42.722;23.268;2023-04-25T02:35:10;94037.50;;;10.08;100.00
42247;BME280;27913;42.722;23.268;2023-04-25T02:37:38;94070.78;;;10.35;100.00
42247;BME280;27913;42.722;23.268;2023-04-25T02:40:05;94113.19;;;10.45;100.00
42247;BME280;27913;42.722;23.268;2023-04-25T02:42:30;94142.06;;;10.59;100.00
42247;BME280;27913;42.722;23.268;2023-04-25T02:44:56;94131.19;;;10.48;100.00
42247;BME280;27913;42.722;23.268;2023-04-25T02:47:21;94137.63;;;10.53;100.00
42247;BME280;27913;42.722;23.268;2023-04-25T02:49:47;94091.59;;;10.23;100.00
42247;BME280;27913;42.722;23.268;2023-04-25T02:52:12;94132.19;;;10.41;100.00
42247;BME280;27913;42.722;23.268;2023-04-25T02:54:39;94133.22;;;10.39;100.00
42247;BME280;27913;42.722;23.268;2023-04-25T02:57:05;93921.84;;;9.16;100.00
42247;BME280;27913;42.722;23.268;2023-04-25T02:59:30;94122.88;;;10.45;100.00
42247;BME280;27913;42.722;23.268;2023-04-25T03:01:56;94130.97;;;10.50;100.00
42247;BME280;27913;42.722;23.268;2023-04-25T03:04:21;94122.50;;;10.48;100.00
42247;BME280;27913;42.722;23.268;2023-04-25T03:06:49;94066.97;;;10.10;100.00
42247;BME280;27913;42.722;23.268;2023-04-25T03:09:15;94121.06;;;10.45;100.00
42247;BME280;27913;42.722;23.268;2023-04-25T03:11:40;94130.97;;;10.43;100.00
42247;BME280;27913;42.722;23.268;2023-04-25T03:14:06;93995.84;;;9.59;100.00
42247;BME280;27913;42.722;23.268;2023-04-25T03:16:31;94119.28;;;10.32;100.00
42247;BME280;27913;42.722;23.268;2023-04-25T03:18:57;94120.31;;;10.24;100.00
42247;BME280;27913;42.722;23.268;2023-04-25T03:21:23;94127.03;;;10.13;100.00
42247;BME280;27913;42.722;23.268;2023-04-25T03:23:48;94120.97;;;10.06;100.00
42247;BME280;27913;42.722;23.268;2023-04-25T03:26:14;94074.38;;;9.61;100.00
42247;BME280;27913;42.722;23.268;2023-04-25T03:28:39;94048.53;;;9.51;100.00
42247;BME280;27913;42.722;23.268;2023-04-25T03:31:05;94070.72;;;9.62;100.00
42247;BME280;27913;42.722;23.268;2023-04-25T03:33:31;94078.38;;;9.70;100.00
42247;BME280;27913;42.722;23.268;2023-04-25T03:35:56;94125.63;;;9.97;100.00
42247;BME280;27913;42.722;23.268;2023-04-25T03:38:21;94128.88;;;9.99;100.00
42247;BME280;27913;42.722;23.268;2023-04-25T03:40:47;94070.53;;;9.63;100.00
42247;BME280;27913;42.722;23.268;2023-04-25T03:43:12;94122.19;;;9.90;100.00
42247;BME280;27913;42.722;23.268;2023-04-25T03:45:38;94066.50;;;9.54;100.00
42247;BME280;27913;42.722;23.268;2023-04-25T03:48:03;94111.94;;;9.75;100.00
42247;BME280;27913;42.722;23.268;2023-04-25T03:50:29;94119.81;;;9.75;100.00
42247;BME280;27913;42.722;23.268;2023-04-25T03:52:54;93977.69;;;8.63;100.00
42247;BME280;27913;42.722;23.268;2023-04-25T03:55:21;94123.41;;;9.33;100.00
42247;BME280;27913;42.722;23.268;2023-04-25T03:57:46;93903.25;;;8.09;100.00
42247;BME280;27913;42.722;23.268;2023-04-25T04:00:12;93990.84;;;8.69;100.00
42247;BME280;27913;42.722;23.268;2023-04-25T04:02:38;94132.91;;;9.61;100.00
42247;BME280;27913;42.722;23.268;2023-04-25T04:05:04;93983.75;;;8.77;100.00
42247;BME280;27913;42.722;23.268;2023-04-25T04:07:30;94130.69;;;9.85;100.00
42247;BME280;27913;42.722;23.268;2023-04-25T04:09:58;93919.25;;;8.55;100.00
42247;BME280;27913;42.722;23.268;2023-04-25T04:12:23;94127.44;;;9.97;100.00
42247;BME280;27913;42.722;23.268;2023-04-25T04:14:49;94129.06;;;10.05;100.00
42247;BME280;27913;42.722;23.268;2023-04-25T04:17:14;94125.81;;;10.09;100.00
42247;BME280;27913;42.722;23.268;2023-04-25T04:19:41;94125.41;;;10.06;100.00
42247;BME280;27913;42.722;23.268;2023-04-25T04:22:07;94061.41;;;9.79;100.00
42247;BME280;27913;42.722;23.268;2023-04-25T04:24:32;94114.84;;;10.19;100.00
42247;BME280;27913;42.722;23.268;2023-04-25T04:26:58;94115.22;;;10.30;100.00
42247;BME280;27913;42.722;23.268;2023-04-25T04:29:24;93921.66;;;9.04;100.00
42247;BME280;27913;42.722;23.268;2023-04-25T04:31:50;94028.28;;;9.72;100.00
42247;BME280;27913;42.722;23.268;2023-04-25T04:34:17;94127.53;;;10.43;100.00
42247;BME280;27913;42.722;23.268;2023-04-25T04:36:44;94127.75;;;10.48;100.00
42247;BME280;27913;42.722;23.268;2023-04-25T04:39:11;94125.72;;;10.50;100.00
42247;BME280;27913;42.722;23.268;2023-04-25T04:41:37;94124.91;;;10.49;100.00
42247;BME280;27913;42.722;23.268;2023-04-25T04:44:03;94082.91;;;10.29;100.00
42247;BME280;27913;42.722;23.268;2023-04-25T04:46:29;94135.00;;;10.53;100.00
42247;BME280;27913;42.722;23.268;2023-04-25T04:48:55;94130.56;;;10.46;100.00
42247;BME280;27913;42.722;23.268;2023-04-25T04:51:21;93984.38;;;9.40;100.00
42247;BME280;27913;42.722;23.268;2023-04-25T04:53:47;94065.06;;;9.85;100.00
42247;BME280;27913;42.722;23.268;2023-04-25T04:56:12;94143.72;;;10.53;100.00
42247;BME280;27913;42.722;23.268;2023-04-25T04:58:38;94114.69;;;10.80;100.00
42247;BME280;27913;42.722;23.268;2023-04-25T05:01:03;94146.41;;;11.24;100.00
42247;BME280;27913;42.722;23.268;2023-04-25T05:03:29;94157.63;;;11.45;100.00
42247;BME280;27913;42.722;23.268;2023-04-25T05:05:54;94058.75;;;10.92;100.00
42247;BME280;27913;42.722;23.268;2023-04-25T05:08:20;94107.69;;;11.32;100.00
42247;BME280;27913;42.722;23.268;2023-04-25T05:10:45;94053.88;;;10.95;100.00
42247;BME280;27913;42.722;23.268;2023-04-25T05:13:11;94164.09;;;11.75;100.00
42247;BME280;27913;42.722;23.268;2023-04-25T05:15:36;94176.34;;;11.88;100.00
42247;BME280;27913;42.722;23.268;2023-04-25T05:18:02;94168.34;;;12.02;99.42
42247;BME280;27913;42.722;23.268;2023-04-25T05:20:28;94162.25;;;12.01;99.36
42247;BME280;27913;42.722;23.268;2023-04-25T05:22:53;94170.31;;;12.06;100.00
42247;BME280;27913;42.722;23.268;2023-04-25T05:25:19;94141.19;;;12.01;99.98
42247;BME280;27913;42.722;23.268;2023-04-25T05:27:44;94161.22;;;12.28;99.25
42247;BME280;27913;42.722;23.268;2023-04-25T05:30:10;94166.59;;;12.40;97.02
42247;BME280;27913;42.722;23.268;2023-04-25T05:32:35;94052.66;;;11.75;96.60
42247;BME280;27913;42.722;23.268;2023-04-25T05:35:01;94112.22;;;12.20;96.91
42247;BME280;27913;42.722;23.268;2023-04-25T05:39:53;94049.09;;;11.88;97.35
42247;BME280;27913;42.722;23.268;2023-04-25T05:42:18;94139.75;;;12.62;96.93
42247;BME280;27913;42.722;23.268;2023-04-25T05:44:44;94076.38;;;12.19;95.60
42247;BME280;27913;42.722;23.268;2023-04-25T05:47:09;94155.59;;;12.62;95.73
42247;BME280;27913;42.722;23.268;2023-04-25T05:49:35;94139.69;;;12.50;94.32
42247;BME280;27913;42.722;23.268;2023-04-25T05:52:00;94142.47;;;12.55;94.17
42247;BME280;27913;42.722;23.268;2023-04-25T05:55:09;94105.88;;;12.28;95.34
42247;BME280;27913;42.722;23.268;2023-04-25T05:57:35;94079.28;;;12.11;96.05
42247;BME280;27913;42.722;23.268;2023-04-25T06:00:01;94123.66;;;12.51;95.74
42247;BME280;27913;42.722;23.268;2023-04-25T06:02:26;94121.31;;;12.43;91.87
42247;BME280;27913;42.722;23.268;2023-04-25T06:04:52;94141.25;;;12.58;92.60
42247;BME280;27913;42.722;23.268;2023-04-25T06:07:19;94081.19;;;12.22;93.63
42247;BME280;27913;42.722;23.268;2023-04-25T06:09:45;94058.00;;;12.12;93.68
42247;BME280;27913;42.722;23.268;2023-04-25T06:12:10;94054.25;;;12.20;93.34
42247;BME280;27913;42.722;23.268;2023-04-25T06:14:36;94120.06;;;12.64;93.25
42247;BME280;27913;42.722;23.268;2023-04-25T06:17:03;94071.59;;;12.28;93.51
42247;BME280;27913;42.722;23.268;2023-04-25T06:19:33;94136.47;;;12.66;93.64
42247;BME280;27913;42.722;23.268;2023-04-25T06:21:59;94160.28;;;12.78;93.92
42247;BME280;27913;42.722;23.268;2023-04-25T06:24:25;94128.34;;;12.68;92.48
42247;BME280;27913;42.722;23.268;2023-04-25T06:26:50;94035.63;;;12.34;90.37
42247;BME280;27913;42.722;23.268;2023-04-25T06:29:16;94163.69;;;13.28;89.58
42247;BME280;27913;42.722;23.268;2023-04-25T06:31:41;94156.88;;;13.51;89.04
42247;BME280;27913;42.722;23.268;2023-04-25T06:34:07;94113.00;;;13.38;89.44
42247;BME280;27913;42.722;23.268;2023-04-25T06:36:32;94035.25;;;13.22;88.77
42247;BME280;27913;42.722;23.268;2023-04-25T06:38:57;94156.53;;;14.27;88.31
42247;BME280;27913;42.722;23.268;2023-04-25T06:41:23;94160.41;;;14.48;86.94
42247;BME280;27913;42.722;23.268;2023-04-25T06:43:48;94136.38;;;14.37;85.88
42247;BME280;27913;42.722;23.268;2023-04-25T06:46:14;94166.84;;;14.52;85.53
42247;BME280;27913;42.722;23.268;2023-04-25T06:48:39;94159.59;;;14.59;84.54
42247;BME280;27913;42.722;23.268;2023-04-25T06:51:05;94119.03;;;14.42;84.12
42247;BME280;27913;42.722;23.268;2023-04-25T06:53:30;94166.78;;;14.76;84.61
42247;BME280;27913;42.722;23.268;2023-04-25T06:55:56;94161.16;;;14.72;85.63
42247;BME280;27913;42.722;23.268;2023-04-25T06:58:21;94138.78;;;14.51;85.64
42247;BME280;27913;42.722;23.268;2023-04-25T07:00:47;94087.88;;;14.20;86.17
42247;BME280;27913;42.722;23.268;2023-04-25T07:03:14;94153.59;;;14.64;85.78
42247;BME280;27913;42.722;23.268;2023-04-25T07:05:40;94131.66;;;14.40;86.10
42247;BME280;27913;42.722;23.268;2023-04-25T07:08:05;94166.38;;;14.55;85.61
42247;BME280;27913;42.722;23.268;2023-04-25T07:10:31;94171.91;;;14.54;85.66
42247;BME280;27913;42.722;23.268;2023-04-25T07:12:56;94162.81;;;14.49;84.80
42247;BME280;27913;42.722;23.268;2023-04-25T07:15:22;94162.81;;;14.49;84.71
42247;BME280;27913;42.722;23.268;2023-04-25T07:17:47;94080.91;;;14.01;83.07
42247;BME280;27913;42.722;23.268;2023-04-25T07:20:13;94124.00;;;14.26;82.35
42247;BME280;27913;42.722;23.268;2023-04-25T07:22:38;94162.50;;;14.46;82.67
42247;BME280;27913;42.722;23.268;2023-04-25T07:25:04;94120.63;;;14.31;83.09
42247;BME280;27913;42.722;23.268;2023-04-25T07:27:30;94130.66;;;14.41;83.19
42247;BME280;27913;42.722;23.268;2023-04-25T07:29:56;94126.69;;;14.55;82.72
42247;BME280;27913;42.722;23.268;2023-04-25T07:32:21;94108.63;;;14.64;82.38
42247;BME280;27913;42.722;23.268;2023-04-25T07:34:47;94128.09;;;14.99;82.14
42247;BME280;27913;42.722;23.268;2023-04-25T07:37:13;94126.19;;;15.12;80.93
42247;BME280;27913;42.722;23.268;2023-04-25T07:39:39;94122.88;;;15.04;80.45
42247;BME280;27913;42.722;23.268;2023-04-25T07:42:04;94086.84;;;14.86;79.89
42247;BME280;27913;42.722;23.268;2023-04-25T07:44:33;94088.28;;;14.94;79.69
42247;BME280;27913;42.722;23.268;2023-04-25T07:47:06;94104.44;;;15.09;79.40
42247;BME280;27913;42.722;23.268;2023-04-25T07:49:34;94159.28;;;15.55;76.68
42247;BME280;27913;42.722;23.268;2023-04-25T07:52:00;94108.09;;;15.38;76.40
42247;BME280;27913;42.722;23.268;2023-04-25T07:54:26;94155.03;;;15.72;76.27
42247;BME280;27913;42.722;23.268;2023-04-25T07:56:52;94064.69;;;15.21;76.51
42247;BME280;27913;42.722;23.268;2023-04-25T07:59:17;94150.63;;;15.60;75.42
42247;BME280;27913;42.722;23.268;2023-04-25T08:01:43;94121.44;;;15.43;75.93
42247;BME280;27913;42.722;23.268;2023-04-25T08:04:08;94146.34;;;15.76;76.11
42247;BME280;27913;42.722;23.268;2023-04-25T08:06:34;94108.38;;;15.70;75.32
42247;BME280;27913;42.722;23.268;2023-04-25T08:09:00;94133.34;;;15.92;74.88
42247;BME280;27913;42.722;23.268;2023-04-25T08:11:25;94008.09;;;15.11;74.40
42247;BME280;27913;42.722;23.268;2023-04-25T08:13:51;94130.13;;;15.73;75.55
42247;BME280;27913;42.722;23.268;2023-04-25T08:16:16;94110.63;;;15.62;75.10
42247;BME280;27913;42.722;23.268;2023-04-25T08:18:42;94103.88;;;15.54;74.53
42247;BME280;27913;42.722;23.268;2023-04-25T08:21:07;94139.38;;;15.53;75.77
42247;BME280;27913;42.722;23.268;2023-04-25T08:23:34;94128.78;;;15.24;75.40
42247;BME280;27913;42.722;23.268;2023-04-25T08:25:59;94145.84;;;14.99;77.57
42247;BME280;27913;42.722;23.268;2023-04-25T08:28:25;94125.31;;;14.65;80.30
42247;BME280;27913;42.722;23.268;2023-04-25T08:30:50;94147.97;;;14.60;85.71
42247;BME280;27913;42.722;23.268;2023-04-25T08:33:16;94114.66;;;14.23;85.30
42247;BME280;27913;42.722;23.268;2023-04-25T08:35:42;94143.88;;;14.17;81.17
42247;BME280;27913;42.722;23.268;2023-04-25T08:38:07;94156.84;;;13.39;90.61
42247;BME280;27913;42.722;23.268;2023-04-25T08:40:35;94138.34;;;12.78;96.76
42247;BME280;27913;42.722;23.268;2023-04-25T08:43:03;94118.38;;;12.51;100.00
42247;BME280;27913;42.722;23.268;2023-04-25T08:45:35;94078.56;;;11.96;100.00
42247;BME280;27913;42.722;23.268;2023-04-25T08:48:02;94134.75;;;12.16;100.00
42247;BME280;27913;42.722;23.268;2023-04-25T08:50:29;94038.97;;;11.66;100.00
42247;BME280;27913;42.722;23.268;2023-04-25T08:52:56;94085.72;;;12.15;100.00
42247;BME280;27913;42.722;23.268;2023-04-25T08:55:24;94081.94;;;12.29;100.00
42247;BME280;27913;42.722;23.268;2023-04-25T08:57:51;94086.00;;;12.44;100.00
42247;BME280;27913;42.722;23.268;2023-04-25T09:00:18;94110.25;;;12.72;100.00
42247;BME280;27913;42.722;23.268;2023-04-25T09:02:44;93998.97;;;12.13;100.00
42247;BME280;27913;42.722;23.268;2023-04-25T09:05:13;94082.63;;;12.86;100.00
42247;BME280;27913;42.722;23.268;2023-04-25T09:07:39;94062.53;;;12.73;100.00
42247;BME280;27913;42.722;23.268;2023-04-25T09:10:04;93994.53;;;12.44;100.00
42247;BME280;27913;42.722;23.268;2023-04-25T09:12:30;94092.75;;;13.32;100.00
42247;BME280;27913;42.722;23.268;2023-04-25T09:15:06;94061.19;;;13.49;100.00
42247;BME280;27913;42.722;23.268;2023-04-25T09:17:32;94044.13;;;13.76;100.00
42247;BME280;27913;42.722;23.268;2023-04-25T09:20:14;94080.16;;;14.30;100.00
42247;BME280;27913;42.722;23.268;2023-04-25T09:22:40;94071.19;;;14.43;100.00
42247;BME280;27913;42.722;23.268;2023-04-25T09:25:10;93944.19;;;13.85;100.00
42247;BME280;27913;42.722;23.268;2023-04-25T09:27:36;94072.66;;;14.92;100.00
42247;BME280;27913;42.722;23.268;2023-04-25T09:30:16;94039.53;;;14.78;97.26
42247;BME280;27913;42.722;23.268;2023-04-25T09:32:44;93964.31;;;14.15;85.53
42247;BME280;27913;42.722;23.268;2023-04-25T09:35:10;94066.94;;;14.71;88.15
42247;BME280;27913;42.722;23.268;2023-04-25T09:37:36;94099.84;;;14.88;89.35
42247;BME280;27913;42.722;23.268;2023-04-25T09:40:06;94071.72;;;14.57;87.86
42247;BME280;27913;42.722;23.268;2023-04-25T09:42:33;94060.22;;;14.52;87.43
42247;BME280;27913;42.722;23.268;2023-04-25T09:45:00;94095.34;;;14.76;86.74
42247;BME280;27913;42.722;23.268;2023-04-25T09:47:29;93969.44;;;13.93;85.76
42247;BME280;27913;42.722;23.268;2023-04-25T09:49:55;94092.25;;;14.67;84.97
42247;BME280;27913;42.722;23.268;2023-04-25T09:52:22;93962.09;;;13.83;85.09
42247;BME280;27913;42.722;23.268;2023-04-25T09:54:49;94094.56;;;14.64;82.17
42247;BME280;27913;42.722;23.268;2023-04-25T09:57:24;94080.28;;;14.77;80.17
42247;BME280;27913;42.722;23.268;2023-04-25T09:59:54;94017.81;;;14.76;78.88
42247;BME280;27913;42.722;23.268;2023-04-25T10:02:22;94053.22;;;15.16;75.96
42247;BME280;27913;42.722;23.268;2023-04-25T10:04:49;94020.44;;;15.05;75.77
42247;BME280;27913;42.722;23.268;2023-04-25T10:07:17;94000.41;;;14.80;75.66
42247;BME280;27913;42.722;23.268;2023-04-25T10:09:44;94010.13;;;14.74;75.56
42247;BME280;27913;42.722;23.268;2023-04-25T10:12:12;94078.31;;;15.13;76.13
42247;BME280;27913;42.722;23.268;2023-04-25T10:14:38;94086.88;;;15.03;75.34
42247;BME280;27913;42.722;23.268;2023-04-25T10:17:03;94000.72;;;14.25;76.75
42247;BME280;27913;42.722;23.268;2023-04-25T10:19:29;94098.31;;;14.92;78.17
42247;BME280;27913;42.722;23.268;2023-04-25T10:22:04;94096.47;;;15.21;75.67
42247;BME280;27913;42.722;23.268;2023-04-25T10:24:31;94101.25;;;15.07;75.29
42247;BME280;27913;42.722;23.268;2023-04-25T10:26:57;94097.00;;;15.06;74.83
42247;BME280;27913;42.722;23.268;2023-04-25T10:29:26;94115.19;;;14.49;70.51
42247;BME280;27913;42.722;23.268;2023-04-25T10:32:00;94121.22;;;13.73;71.20
42247;BME280;27913;42.722;23.268;2023-04-25T10:34:40;93997.84;;;12.83;73.08
42247;BME280;27913;42.722;23.268;2023-04-25T10:37:11;94105.66;;;13.40;76.99
42247;BME280;27913;42.722;23.268;2023-04-25T10:39:41;94096.81;;;13.04;80.64
42247;BME280;27913;42.722;23.268;2023-04-25T10:42:07;94062.44;;;12.80;82.95
42247;BME280;27913;42.722;23.268;2023-04-25T10:44:33;94088.50;;;13.19;84.05
42247;BME280;27913;42.722;23.268;2023-04-25T10:47:00;94079.31;;;13.34;83.05
42247;BME280;27913;42.722;23.268;2023-04-25T10:49:35;94074.41;;;13.37;83.04
42247;BME280;27913;42.722;23.268;2023-04-25T10:52:14;94001.81;;;13.04;82.99
42247;BME280;27913;42.722;23.268;2023-04-25T10:54:48;94045.69;;;13.41;81.63
42247;BME280;27913;42.722;23.268;2023-04-25T10:57:49;94050.25;;;13.64;75.62
42247;BME280;27913;42.722;23.268;2023-04-25T11:00:22;94085.50;;;14.06;72.99
42247;BME280;27913;42.722;23.268;2023-04-25T11:02:52;94077.91;;;14.10;68.83
42247;BME280;27913;42.722;23.268;2023-04-25T11:05:36;94002.78;;;13.70;69.53
42247;BME280;27913;42.722;23.268;2023-04-25T11:08:02;94015.28;;;13.98;69.33
42247;BME280;27913;42.722;23.268;2023-04-25T11:10:35;94071.81;;;14.63;68.62
42247;BME280;27913;42.722;23.268;2023-04-25T11:13:01;94068.53;;;14.72;65.16
42247;BME280;27913;42.722;23.268;2023-04-25T11:15:27;94048.72;;;14.58;63.61
42247;BME280;27913;42.722;23.268;2023-04-25T11:17:55;94047.81;;;14.52;62.04
42247;BME280;27913;42.722;23.268;2023-04-25T11:20:22;94068.44;;;14.38;71.63
42247;BME280;27913;42.722;23.268;2023-04-25T11:22:47;94037.47;;;13.97;72.87
42247;BME280;27913;42.722;23.268;2023-04-25T11:25:14;94011.66;;;13.75;73.76
42247;BME280;27913;42.722;23.268;2023-04-25T11:27:54;94021.41;;;13.75;73.07
42247;BME280;27913;42.722;23.268;2023-04-25T11:30:22;94064.94;;;13.96;70.70
42247;BME280;27913;42.722;23.268;2023-04-25T11:32:48;94040.06;;;14.09;71.94
42247;BME280;27913;42.722;23.268;2023-04-25T11:35:13;94003.53;;;14.06;71.40
42247;BME280;27913;42.722;23.268;2023-04-25T11:37:40;94066.19;;;14.59;71.41
42247;BME280;27913;42.722;23.268;2023-04-25T11:40:06;93995.38;;;14.08;70.47
42247;BME280;27913;42.722;23.268;2023-04-25T11:42:33;93994.25;;;14.04;69.41
42247;BME280;27913;42.722;23.268;2023-04-25T11:44:59;94059.53;;;14.44;68.86
42247;BME280;27913;42.722;23.268;2023-04-25T11:47:30;94063.44;;;14.54;66.69
42247;BME280;27913;42.722;23.268;2023-04-25T11:49:57;94058.63;;;14.51;66.15
42247;BME280;27913;42.722;23.268;2023-04-25T11:52:23;94030.97;;;14.29;65.70
42247;BME280;27913;42.722;23.268;2023-04-25T11:54:48;93997.75;;;14.33;66.27
42247;BME280;27913;42.722;23.268;2023-04-25T11:57:14;94012.25;;;14.89;65.36
42247;BME280;27913;42.722;23.268;2023-04-25T11:59:40;93954.34;;;14.93;64.39
42247;BME280;27913;42.722;23.268;2023-04-25T12:02:05;93963.56;;;15.25;62.37
42247;BME280;27913;42.722;23.268;2023-04-25T12:04:32;94034.69;;;16.07;61.90
42247;BME280;27913;42.722;23.268;2023-04-25T12:06:57;93986.97;;;16.07;60.97
42247;BME280;27913;42.722;23.268;2023-04-25T12:09:32;94032.97;;;16.40;60.45
42247;BME280;27913;42.722;23.268;2023-04-25T12:11:59;94039.03;;;16.58;58.04
42247;BME280;27913;42.722;23.268;2023-04-25T12:14:32;94041.50;;;16.42;57.62
42247;BME280;27913;42.722;23.268;2023-04-25T12:17:00;94042.28;;;16.21;57.03
42247;BME280;27913;42.722;23.268;2023-04-25T12:19:26;94066.59;;;16.12;56.62
42247;BME280;27913;42.722;23.268;2023-04-25T12:21:56;94109.66;;;15.68;59.51
42247;BME280;27913;42.722;23.268;2023-04-25T12:24:24;94098.97;;;14.99;69.90
42247;BME280;27913;42.722;23.268;2023-04-25T12:27:00;94115.69;;;13.20;85.97
42247;BME280;27913;42.722;23.268;2023-04-25T12:29:28;94051.97;;;11.60;88.79
42247;BME280;27913;42.722;23.268;2023-04-25T12:31:55;94026.53;;;11.03;97.84
42247;BME280;27913;42.722;23.268;2023-04-25T12:34:22;94071.66;;;11.00;100.00
42247;BME280;27913;42.722;23.268;2023-04-25T12:36:50;94040.78;;;10.49;100.00
42247;BME280;27913;42.722;23.268;2023-04-25T12:39:22;94046.63;;;10.58;100.00
42247;BME280;27913;42.722;23.268;2023-04-25T12:41:51;94055.03;;;10.74;100.00
42247;BME280;27913;42.722;23.268;2023-04-25T12:44:20;94083.59;;;11.03;99.17
42247;BME280;27913;42.722;23.268;2023-04-25T12:46:46;94098.72;;;11.40;100.00
42247;BME280;27913;42.722;23.268;2023-04-25T12:49:12;94045.06;;;11.41;100.00